South Lebanon, Ohio
Current Conditions -  °F | °C
As of 7:53 AM on Sunday 28 Dec 2014 (Local Time) from KMGY Reporting Station
Haze Haze  
Wind Chill: 27°   Ceiling: 800
Heat Index: 34°   Visibility: 6mi
Dew Point: 32°   Wind: 9mph
Humidity: 92%   Direction: 340°NNW
Pressure: 30.09"   Gusts: NA
Location:  39.37°N, 84.21°W
Report Text: KMGY 281253Z AUTO 34008KT 6SM BR OVC008 01/00 A3009 RMK AO2 CIG 005V011 SLP195 T00110000 $
Loading
Personal Weather Stations






























Interactive Weather Map New forecast layout! Learn more

10-Day Weather Forecast

Advertisements
Track Severe Weather on mobile